Time;durP1;ratioP1;P1;durP2;ratioP2;P2;SDS_P1;SDS_P2;PMS_P1;PMS_P2;Temp;Humidity;BMP_temperature;BMP_pressure;BME280_temperature;BME280_humidity;BME280_pressure;Samples;Min_cycle;Max_cycle;Signal;HPM_P1;HPM_P2
2021/12/31 00:00:28;;;;;;;1.98;0.75;;;27.20;75.10;;;;;;5130116;27;20396;-84
2021/12/31 00:02:55;;;;;;;2.58;0.80;;;27.00;72.70;;;;;;5130002;27;20918;-86
2021/12/31 00:05:22;;;;;;;1.83;0.52;;;26.80;73.30;;;;;;5129967;27;20387;-85
2021/12/31 00:07:49;;;;;;;2.47;0.85;;;26.80;74.30;;;;;;5130053;27;20377;-86
2021/12/31 00:10:16;;;;;;;1.98;0.70;;;27.10;75.00;;;;;;5130042;27;20374;-85
2021/12/31 00:12:44;;;;;;;2.08;0.60;;;27.30;74.40;;;;;;5129952;27;20376;-83
2021/12/31 00:15:12;;;;;;;1.33;0.57;;;27.40;73.00;;;;;;5130035;27;20366;-85
2021/12/31 00:17:39;;;;;;;1.70;0.50;;;27.70;62.20;;;;;;5130670;27;20392;-84
2021/12/31 00:20:14;;;;;;;1.13;0.50;;;27.40;56.60;;;;;;5130443;27;20394;-84
2021/12/31 00:25:27;;;;;;;2.33;0.50;;;27.60;53.60;;;;;;5130142;27;20429;-86
2021/12/31 00:27:55;;;;;;;1.60;0.50;;;27.90;56.80;;;;;;5129905;27;20444;-84
2021/12/31 00:30:22;;;;;;;1.42;0.50;;;28.50;58.30;;;;;;5129702;27;20956;-86
2021/12/31 00:32:49;;;;;;;2.28;0.52;;;;;;;;;;5132189;27;20503;-90
2021/12/31 00:35:16;;;;;;;1.50;0.60;;;28.90;58.30;;;;;;5131868;27;20389;-86
2021/12/31 00:37:44;;;;;;;1.90;0.60;;;28.20;57.70;;;;;;5129960;27;20373;-88
2021/12/31 00:40:13;;;;;;;1.67;0.55;;;27.90;59.80;;;;;;5129879;27;20385;-85
2021/12/31 00:42:41;;;;;;;1.45;0.50;;;27.70;60.30;;;;;;5129701;27;20365;-84
2021/12/31 00:45:10;;;;;;;1.60;0.40;;;28.00;61.90;;;;;;5129167;27;20397;-86
2021/12/31 00:47:38;;;;;;;1.50;0.50;;;28.40;57.90;;;;;;5128658;27;20369;-88
2021/12/31 00:50:05;;;;;;;1.08;0.40;;;28.90;57.80;;;;;;5129357;27;20492;-87
2021/12/31 00:52:33;;;;;;;1.85;0.43;;;29.30;53.90;;;;;;5129100;27;20365;-86
2021/12/31 00:55:00;;;;;;;2.50;0.50;;;29.50;53.70;;;;;;5111536;27;20365;-83
2021/12/31 00:57:27;;;;;;;3.08;0.50;;;29.70;54.10;;;;;;5129094;27;20456;-84
2021/12/31 00:59:54;;;;;;;1.00;0.40;;;30.20;51.20;;;;;;5129289;27;20742;-82
2021/12/31 01:02:23;;;;;;;1.30;0.40;;;30.40;50.90;;;;;;5129280;27;20380;-86
2021/12/31 01:04:50;;;;;;;1.70;0.50;;;30.50;50.90;;;;;;5129736;27;20875;-86
2021/12/31 01:07:17;;;;;;;2.25;0.60;;;29.90;52.80;;;;;;5129184;27;20888;-85
2021/12/31 01:09:44;;;;;;;1.40;0.50;;;29.50;54.50;;;;;;5129172;28;20377;-89
2021/12/31 01:12:13;;;;;;;3.33;0.60;;;29.60;55.30;;;;;;5129326;28;20848;-85
2021/12/31 01:14:53;;;;;;;0.60;0.50;;;30.00;55.00;;;;;;5128798;28;20781;-85
2021/12/31 01:17:37;;;;;;;1.00;0.50;;;30.40;52.60;;;;;;5129039;28;20459;-86
2021/12/31 01:20:08;;;;;;;2.03;0.50;;;31.10;49.50;;;;;;5128769;28;20380;-86
2021/12/31 01:22:36;;;;;;;1.67;0.50;;;31.00;49.10;;;;;;5128954;28;20439;-85
2021/12/31 01:25:05;;;;;;;1.45;0.45;;;30.70;49.50;;;;;;5128874;28;20423;-88
2021/12/31 01:27:33;;;;;;;1.23;0.45;;;30.60;47.30;;;;;;5129392;28;20905;-85
2021/12/31 01:30:00;;;;;;;0.90;0.38;;;30.50;49.70;;;;;;5128771;28;20868;-82
2021/12/31 01:32:29;;;;;;;1.20;0.60;;;30.60;47.30;;;;;;5128945;28;20978;-84
2021/12/31 01:34:56;;;;;;;1.30;0.50;;;30.50;48.90;;;;;;5129122;28;20899;-83
2021/12/31 01:37:23;;;;;;;1.08;0.60;;;30.70;52.80;;;;;;5128971;28;20727;-81
2021/12/31 01:39:51;;;;;;;1.85;0.60;;;31.30;52.20;;;;;;5128495;28;20365;-85
2021/12/31 01:42:23;;;;;;;1.10;0.60;;;31.70;49.80;;;;;;5128808;28;20365;-87
2021/12/31 01:44:57;;;;;;;0.70;0.60;;;31.90;48.70;;;;;;5128951;28;20400;-86
2021/12/31 01:47:34;;;;;;;2.28;0.60;;;31.40;50.30;;;;;;5128381;28;20403;-86
2021/12/31 01:50:06;;;;;;;2.20;0.65;;;31.70;51.50;;;;;;5128224;28;20388;-87
2021/12/31 01:52:35;;;;;;;1.65;0.50;;;31.80;48.20;;;;;;5129155;28;20818;-85
2021/12/31 01:55:04;;;;;;;1.20;0.57;;;31.60;49.60;;;;;;5128835;28;20367;-85
2021/12/31 01:57:32;;;;;;;1.00;0.43;;;32.30;48.20;;;;;;5129893;27;20372;-85
2021/12/31 02:00:00;;;;;;;0.88;0.50;;;32.70;48.20;;;;;;5132937;27;20449;-86
2021/12/31 02:02:27;;;;;;;1.35;0.55;;;32.20;49.30;;;;;;5134636;27;20915;-88
2021/12/31 02:04:55;;;;;;;2.35;0.55;;;32.70;49.70;;;;;;5132638;27;20401;-82
2021/12/31 02:07:22;;;;;;;1.08;0.40;;;33.30;47.00;;;;;;5132238;27;20902;-87
2021/12/31 02:09:54;;;;;;;1.48;0.50;;;34.30;46.60;;;;;;5132663;27;20790;-89
2021/12/31 02:12:23;;;;;;;1.30;0.60;;;34.90;47.60;;;;;;5132276;27;20389;-87
2021/12/31 02:14:51;;;;;;;2.75;0.60;;;35.10;45.20;;;;;;5132408;27;20387;-88
2021/12/31 02:17:19;;;;;;;1.20;0.50;;;34.00;47.60;;;;;;5136813;27;20372;-90
2021/12/31 02:20:07;;;;;;;3.17;0.60;;;34.30;48.80;;;;;;5134278;27;20393;-88
2021/12/31 02:22:39;;;;;;;0.63;0.40;;;34.80;44.50;;;;;;5132917;27;20479;-85
2021/12/31 02:25:09;;;;;;;1.83;0.40;;;35.40;43.00;;;;;;5132026;27;20396;-86
2021/12/31 02:27:40;;;;;;;1.30;0.43;;;36.10;43.10;;;;;;5132053;27;20369;-84
2021/12/31 02:30:10;;;;;;;1.13;0.40;;;36.50;41.40;;;;;;5132068;27;20856;-83
2021/12/31 02:32:38;;;;;;;0.77;0.40;;;37.10;39.00;;;;;;5132024;27;20868;-83
2021/12/31 02:35:08;;;;;;;1.38;0.40;;;36.60;40.60;;;;;;5132077;27;20377;-84
2021/12/31 02:37:35;;;;;;;1.30;0.40;;;36.80;38.80;;;;;;5131940;27;20369;-85
2021/12/31 02:40:05;;;;;;;0.45;0.40;;;36.60;40.10;;;;;;5131773;27;20385;-85
2021/12/31 02:42:32;;;;;;;0.97;0.43;;;36.40;40.00;;;;;;5113406;27;20373;-86
2021/12/31 02:45:00;;;;;;;1.63;0.40;;;36.10;37.70;;;;;;5131752;27;20752;-91
2021/12/31 02:47:27;;;;;;;0.40;0.40;;;35.70;40.80;;;;;;5131871;27;20369;-85
2021/12/31 02:49:54;;;;;;;0.38;0.30;;;36.20;39.30;;;;;;5131686;27;20383;-82
2021/12/31 02:52:21;;;;;;;0.50;0.40;;;36.90;40.00;;;;;;5131740;27;20366;-84
2021/12/31 02:54:49;;;;;;;0.98;0.40;;;37.40;37.30;;;;;;5131627;27;20373;-85
2021/12/31 02:57:18;;;;;;;0.73;0.40;;;38.00;36.60;;;;;;5131752;27;20362;-85
2021/12/31 02:59:46;;;;;;;0.93;0.30;;;38.20;37.10;;;;;;5131877;27;20392;-85
2021/12/31 03:02:14;;;;;;;0.77;0.35;;;38.40;36.90;;;;;;5131539;27;20420;-85
2021/12/31 03:04:42;;;;;;;0.77;0.40;;;38.70;37.30;;;;;;5131396;27;20419;-84
2021/12/31 03:07:12;;;;;;;0.65;0.30;;;39.10;36.50;;;;;;5131430;27;20376;-84
2021/12/31 03:09:45;;;;;;;1.08;0.40;;;39.40;36.40;;;;;;5130299;27;20361;-86
2021/12/31 03:12:14;;;;;;;0.60;0.40;;;39.10;36.50;;;;;;5131370;27;20748;-87
2021/12/31 03:14:44;;;;;;;1.42;0.50;;;39.20;36.00;;;;;;5131317;27;20435;-87
2021/12/31 03:17:13;;;;;;;0.52;0.30;;;38.30;37.20;;;;;;5131610;27;20369;-85
2021/12/31 03:19:42;;;;;;;1.20;0.50;;;37.90;38.00;;;;;;5131199;27;20369;-85
2021/12/31 03:22:09;;;;;;;0.93;0.50;;;37.90;37.40;;;;;;5131093;27;20449;-87
2021/12/31 03:24:36;;;;;;;0.38;0.38;;;38.40;37.10;;;;;;5130992;27;20392;-87
2021/12/31 03:27:03;;;;;;;0.63;0.40;;;39.10;35.10;;;;;;5130835;27;20767;-85
2021/12/31 03:29:31;;;;;;;0.50;0.47;;;39.80;33.70;;;;;;5130923;27;20373;-84
2021/12/31 03:31:58;;;;;;;1.17;0.40;;;39.70;34.90;;;;;;5131105;27;20476;-84
2021/12/31 03:34:26;;;;;;;0.50;0.30;;;40.00;34.10;;;;;;5130795;27;20373;-84
2021/12/31 03:36:52;;;;;;;1.70;0.50;;;39.90;34.20;;;;;;5130748;27;20361;-85
2021/12/31 03:39:22;;;;;;;0.70;0.40;;;39.80;34.20;;;;;;5130748;27;20453;-83
2021/12/31 03:41:49;;;;;;;2.05;0.50;;;38.70;35.80;;;;;;5130483;27;20472;-84
2021/12/31 03:44:16;;;;;;;0.60;0.38;;;38.60;37.00;;;;;;5130518;27;20891;-84
2021/12/31 03:46:43;;;;;;;0.55;0.38;;;39.40;37.20;;;;;;5130620;27;20369;-84
2021/12/31 03:49:10;;;;;;;0.70;0.30;;;39.00;36.00;;;;;;5130539;27;20452;-85
2021/12/31 03:51:37;;;;;;;0.57;0.50;;;38.40;36.80;;;;;;5131197;27;20513;-86
2021/12/31 03:54:04;;;;;;;2.17;0.50;;;38.20;37.30;;;;;;5130356;27;20369;-85
2021/12/31 03:56:33;;;;;;;2.50;0.60;;;38.50;39.80;;;;;;5111964;27;20404;-86
2021/12/31 03:59:00;;;;;;;0.88;0.55;;;38.80;40.30;;;;;;5130256;27;20405;-84
2021/12/31 04:01:28;;;;;;;1.15;0.55;;;39.40;40.40;;;;;;5130278;27;20740;-87
2021/12/31 04:03:55;;;;;;;2.55;0.60;;;39.90;39.20;;;;;;5130372;27;20484;-87
2021/12/31 04:06:23;;;;;;;2.70;0.68;;;39.30;40.50;;;;;;5131781;27;20362;-83
2021/12/31 04:08:54;;;;;;;0.65;0.50;;;38.80;40.60;;;;;;5130373;27;20384;-82
2021/12/31 04:11:25;;;;;;;0.87;0.40;;;38.90;40.70;;;;;;5130112;27;20368;-87
2021/12/31 04:13:52;;;;;;;1.10;0.57;;;38.80;41.10;;;;;;5130004;27;20465;-86
2021/12/31 04:16:19;;;;;;;1.00;0.50;;;39.40;39.90;;;;;;5130280;27;20725;-88
2021/12/31 04:18:46;;;;;;;1.85;0.65;;;39.20;41.10;;;;;;5129929;27;20364;-86
2021/12/31 04:21:18;;;;;;;2.22;0.70;;;39.30;40.50;;;;;;5129624;27;20373;-87
2021/12/31 04:23:52;;;;;;;2.23;0.80;;;39.80;40.80;;;;;;5129851;27;20729;-86
2021/12/31 04:26:20;;;;;;;1.75;0.60;;;40.00;41.40;;;;;;5129988;27;20361;-87
2021/12/31 04:28:47;;;;;;;0.60;0.50;;;40.00;40.50;;;;;;5111587;27;20446;-85
2021/12/31 04:31:14;;;;;;;1.90;0.60;;;40.10;40.30;;;;;;5129855;27;20369;-87
2021/12/31 04:33:41;;;;;;;2.40;0.80;;;40.30;40.70;;;;;;5129771;27;20389;-86
2021/12/31 04:36:08;;;;;;;1.25;0.63;;;40.10;40.80;;;;;;5129692;27;20376;-87
2021/12/31 04:38:35;;;;;;;0.75;0.52;;;40.10;40.60;;;;;;5129709;27;20437;-85
2021/12/31 04:41:03;;;;;;;1.52;0.52;;;40.20;40.50;;;;;;5129391;27;20428;-84
2021/12/31 04:43:30;;;;;;;1.42;0.57;;;40.80;39.00;;;;;;5129743;27;20877;-86
2021/12/31 04:45:57;;;;;;;1.65;0.55;;;40.90;39.80;;;;;;5129644;27;20365;-87
2021/12/31 04:48:24;;;;;;;1.20;0.50;;;40.20;41.00;;;;;;5130031;27;20380;-85
2021/12/31 04:50:51;;;;;;;1.50;0.70;;;40.10;40.30;;;;;;5129592;27;20812;-86
2021/12/31 04:53:18;;;;;;;1.00;0.60;;;40.60;40.10;;;;;;5131814;27;20448;-85
2021/12/31 04:55:45;;;;;;;2.50;0.63;;;40.30;40.10;;;;;;5129447;27;20382;-85
2021/12/31 04:58:12;;;;;;;1.20;0.68;;;40.10;40.80;;;;;;5129386;27;20425;-89
2021/12/31 05:00:40;;;;;;;1.90;0.60;;;40.20;39.40;;;;;;5129371;27;20422;-87
2021/12/31 05:03:08;;;;;;;1.37;0.60;;;40.30;40.70;;;;;;5110812;27;20373;-85
2021/12/31 05:05:36;;;;;;;0.57;0.50;;;40.00;40.80;;;;;;5129219;27;20373;-86
2021/12/31 05:08:04;;;;;;;0.98;0.63;;;40.40;40.80;;;;;;5129425;27;20862;-84
2021/12/31 05:10:32;;;;;;;1.40;0.70;;;39.70;40.80;;;;;;5129347;28;20381;-85
2021/12/31 05:13:04;;;;;;;2.38;0.70;;;39.40;41.70;;;;;;5110786;28;20384;-84
2021/12/31 05:15:38;;;;;;;1.30;0.60;;;38.90;41.50;;;;;;5129366;28;20396;-87
2021/12/31 05:18:05;;;;;;;1.05;0.60;;;39.10;40.80;;;;;;5129391;28;20416;-87
2021/12/31 05:20:32;;;;;;;1.10;0.60;;;39.10;40.50;;;;;;5131660;28;20380;-86
2021/12/31 05:23:00;;;;;;;1.92;0.70;;;39.00;41.10;;;;;;5129051;28;20364;-83
2021/12/31 05:25:28;;;;;;;1.40;0.60;;;38.90;41.30;;;;;;5129001;28;20377;-84
2021/12/31 05:27:55;;;;;;;1.80;0.70;;;38.90;42.00;;;;;;5129056;28;20369;-86
2021/12/31 05:30:22;;;;;;;2.38;0.60;;;38.80;42.30;;;;;;5129312;28;20369;-88
2021/12/31 05:32:49;;;;;;;1.80;0.60;;;39.20;42.80;;;;;;5131427;27;20888;-81
2021/12/31 05:35:16;;;;;;;1.52;0.60;;;39.40;42.70;;;;;;5133254;27;20376;-84
2021/12/31 05:37:43;;;;;;;1.87;0.80;;;38.80;43.40;;;;;;5133349;27;20396;-85
2021/12/31 05:40:11;;;;;;;2.22;0.88;;;38.60;42.90;;;;;;5133078;27;20384;-83
2021/12/31 05:42:38;;;;;;;2.13;0.68;;;38.60;42.60;;;;;;5132959;27;20864;-83
2021/12/31 05:45:09;;;;;;;2.45;0.80;;;38.40;43.60;;;;;;5132931;27;20403;-83
2021/12/31 05:47:40;;;;;;;2.00;0.90;;;38.30;43.00;;;;;;5132893;27;20456;-83
2021/12/31 05:50:18;;;;;;;2.17;0.80;;;38.60;42.50;;;;;;5132931;27;20404;-89
2021/12/31 05:52:46;;;;;;;3.05;0.90;;;38.60;42.50;;;;;;5133038;27;20440;-84
2021/12/31 05:55:13;;;;;;;2.10;0.80;;;38.60;42.50;;;;;;5132888;27;20393;-83
2021/12/31 05:57:40;;;;;;;1.97;0.70;;;38.50;42.70;;;;;;5132679;27;20392;-83
2021/12/31 06:00:07;;;;;;;2.22;0.70;;;38.80;42.40;;;;;;5132784;27;20448;-83
2021/12/31 06:02:34;;;;;;;1.30;0.60;;;38.90;42.70;;;;;;5132937;27;20806;-86
2021/12/31 06:05:02;;;;;;;1.75;0.90;;;38.50;42.70;;;;;;5132600;27;20392;-84
2021/12/31 06:07:28;;;;;;;2.87;1.10;;;38.50;43.40;;;;;;5132641;27;20393;-83
2021/12/31 06:09:55;;;;;;;2.45;0.90;;;38.20;42.50;;;;;;5132321;27;20396;-85
2021/12/31 06:12:25;;;;;;;3.05;0.75;;;37.90;43.60;;;;;;5132340;27;20446;-84
2021/12/31 06:14:54;;;;;;;2.55;0.82;;;37.70;43.70;;;;;;5133036;27;20373;-85
2021/12/31 06:17:26;;;;;;;2.17;0.90;;;37.70;43.90;;;;;;5114075;27;20435;-84
2021/12/31 06:19:54;;;;;;;3.78;0.80;;;37.40;43.70;;;;;;5132197;27;20737;-84
2021/12/31 06:22:22;;;;;;;2.20;0.97;;;37.00;44.80;;;;;;5132134;27;20369;-83
2021/12/31 06:24:50;;;;;;;2.73;0.97;;;37.10;44.00;;;;;;5132398;27;20407;-85
2021/12/31 06:27:17;;;;;;;2.72;0.88;;;37.30;43.40;;;;;;5132526;27;20415;-85
2021/12/31 06:29:45;;;;;;;2.45;1.02;;;37.50;44.50;;;;;;5132053;27;20407;-84
2021/12/31 06:32:12;;;;;;;2.50;1.00;;;37.00;44.70;;;;;;5132058;27;20410;-85
2021/12/31 06:34:39;;;;;;;3.53;1.00;;;36.80;43.80;;;;;;5132063;27;20369;-83
2021/12/31 06:37:06;;;;;;;3.35;1.02;;;36.90;44.50;;;;;;5131992;27;20361;-84
2021/12/31 06:39:35;;;;;;;1.80;0.90;;;36.70;44.10;;;;;;5131582;27;20377;-84
2021/12/31 06:42:03;;;;;;;2.80;0.88;;;36.70;44.10;;;;;;5132002;27;20372;-85
2021/12/31 06:44:33;;;;;;;2.97;0.98;;;36.80;44.50;;;;;;5131819;27;20393;-81
2021/12/31 06:47:02;;;;;;;4.18;1.10;;;36.40;44.60;;;;;;5131878;27;20376;-86
2021/12/31 06:49:29;;;;;;;3.95;1.40;;;36.20;46.70;;;;;;5131900;27;20376;-82
2021/12/31 06:51:56;;;;;;;2.80;1.20;;;35.90;45.90;;;;;;5131940;27;20376;-84
2021/12/31 06:54:23;;;;;;;3.30;1.10;;;35.80;47.10;;;;;;5131949;27;20724;-85
2021/12/31 06:56:50;;;;;;;2.85;1.10;;;35.60;46.40;;;;;;5131831;27;20369;-87
2021/12/31 06:59:17;;;;;;;3.80;1.00;;;35.70;46.50;;;;;;5113427;27;20771;-84
2021/12/31 07:01:44;;;;;;;2.47;0.90;;;35.70;45.30;;;;;;5131744;27;20369;-87
2021/12/31 07:04:11;;;;;;;3.42;0.80;;;35.90;44.90;;;;;;5131516;27;20439;-86
2021/12/31 07:06:38;;;;;;;2.92;0.90;;;36.20;44.80;;;;;;5131521;27;20378;-84
2021/12/31 07:09:05;;;;;;;1.83;0.82;;;35.90;44.90;;;;;;5131444;27;20389;-84
2021/12/31 07:11:32;;;;;;;2.00;0.90;;;35.80;44.70;;;;;;5131371;27;20400;-84
2021/12/31 07:13:59;;;;;;;3.30;0.90;;;35.40;44.90;;;;;;5131228;27;20445;-86
2021/12/31 07:16:26;;;;;;;3.20;0.82;;;34.90;45.40;;;;;;5131301;27;20386;-83
2021/12/31 07:18:53;;;;;;;2.80;0.70;;;34.80;46.00;;;;;;5131329;27;20393;-84
2021/12/31 07:21:20;;;;;;;3.33;0.90;;;34.90;44.70;;;;;;5131183;27;20438;-85
2021/12/31 07:23:47;;;;;;;1.85;0.77;;;35.00;44.40;;;;;;5131132;27;20393;-85
2021/12/31 07:26:14;;;;;;;3.10;0.80;;;34.60;45.60;;;;;;5131412;27;20365;-84
2021/12/31 07:28:41;;;;;;;2.78;0.85;;;34.50;46.10;;;;;;5131132;27;20380;-83
2021/12/31 07:31:12;;;;;;;3.70;0.95;;;34.50;45.50;;;;;;5132099;27;20401;-87
2021/12/31 07:33:40;;;;;;;2.58;0.85;;;34.30;45.40;;;;;;5131437;27;20365;-86
2021/12/31 07:36:07;;;;;;;2.25;0.80;;;34.30;46.50;;;;;;5133227;27;20404;-87
2021/12/31 07:38:38;;;;;;;2.20;0.95;;;33.50;47.70;;;;;;5131188;27;20377;-84
2021/12/31 07:41:06;;;;;;;1.52;0.80;;;33.10;49.10;;;;;;5133390;27;20831;-86
2021/12/31 07:43:33;;;;;;;2.67;0.90;;;33.20;48.30;;;;;;5130830;27;20779;-89
2021/12/31 07:46:00;;;;;;;2.65;0.95;;;33.20;48.60;;;;;;5130737;27;20387;-83
2021/12/31 07:48:27;;;;;;;3.42;0.82;;;33.20;49.30;;;;;;5130661;27;20365;-83
2021/12/31 07:50:55;;;;;;;2.53;0.80;;;33.10;49.40;;;;;;5130669;27;20464;-84
2021/12/31 07:53:22;;;;;;;3.03;1.02;;;33.10;49.70;;;;;;5130520;27;20372;-84
2021/12/31 07:55:50;;;;;;;2.80;0.80;;;32.50;50.10;;;;;;5129814;27;20876;-86
2021/12/31 07:58:17;;;;;;;1.93;0.87;;;32.50;50.50;;;;;;5130402;27;20377;-85
2021/12/31 08:00:45;;;;;;;2.63;0.95;;;32.60;50.20;;;;;;5130442;27;20365;-85
2021/12/31 08:03:15;;;;;;;4.10;1.23;;;32.40;51.20;;;;;;5130969;27;20434;-83
2021/12/31 08:05:42;;;;;;;4.53;1.00;;;32.00;51.80;;;;;;5130342;27;20369;-86
2021/12/31 08:08:09;;;;;;;2.22;0.80;;;31.80;52.50;;;;;;5112119;27;20864;-85
2021/12/31 08:10:38;;;;;;;3.00;1.00;;;31.50;53.30;;;;;;5130021;27;20409;-85
2021/12/31 08:13:05;;;;;;;2.67;0.93;;;31.40;53.60;;;;;;5130167;27;20724;-86
2021/12/31 08:15:32;;;;;;;2.47;1.00;;;31.40;52.80;;;;;;5130097;27;20379;-81
2021/12/31 08:17:59;;;;;;;3.83;1.27;;;31.10;53.90;;;;;;5130109;27;20861;-84
2021/12/31 08:20:26;;;;;;;2.95;0.82;;;30.70;55.40;;;;;;5130018;27;20464;-85
2021/12/31 08:22:54;;;;;;;4.18;1.10;;;30.20;56.80;;;;;;5130012;27;20361;-87
2021/12/31 08:25:21;;;;;;;4.22;1.02;;;29.90;57.10;;;;;;5129832;27;20396;-85
2021/12/31 08:27:48;;;;;;;3.55;1.00;;;29.70;58.20;;;;;;5129780;27;20369;-85
2021/12/31 08:30:15;;;;;;;4.45;1.58;;;29.50;58.90;;;;;;5130060;27;20370;-84
2021/12/31 08:32:42;;;;;;;6.17;2.00;;;29.20;59.90;;;;;;5129746;27;20395;-85
2021/12/31 08:35:09;;;;;;;5.23;1.53;;;28.90;60.50;;;;;;5129752;27;20422;-86
2021/12/31 08:37:36;;;;;;;4.97;1.23;;;28.70;61.10;;;;;;5129600;27;20852;-85
2021/12/31 08:40:04;;;;;;;3.22;1.23;;;28.50;61.10;;;;;;5129251;27;20422;-83
2021/12/31 08:42:31;;;;;;;3.45;1.20;;;28.20;62.20;;;;;;5111234;27;20743;-83
2021/12/31 08:44:58;;;;;;;5.53;1.30;;;27.80;63.10;;;;;;5129439;27;20495;-84
2021/12/31 08:47:25;;;;;;;5.40;1.13;;;27.50;63.80;;;;;;5129521;27;20409;-86
2021/12/31 08:49:52;;;;;;;4.32;1.30;;;27.20;65.50;;;;;;5129610;27;20369;-85
2021/12/31 08:52:19;;;;;;;5.50;1.20;;;27.20;65.80;;;;;;5129461;27;20373;-88
2021/12/31 08:54:46;;;;;;;4.97;1.30;;;27.10;66.40;;;;;;5129504;27;20369;-87
2021/12/31 08:57:14;;;;;;;5.53;1.60;;;27.00;67.00;;;;;;5110984;27;20394;-88
2021/12/31 08:59:41;;;;;;;5.53;1.40;;;26.90;68.10;;;;;;5129454;27;20457;-84
2021/12/31 09:02:09;;;;;;;5.63;1.38;;;26.90;68.30;;;;;;5129265;27;20391;-86
2021/12/31 09:04:36;;;;;;;5.05;1.80;;;26.70;68.80;;;;;;5129128;27;20512;-86
2021/12/31 09:07:03;;;;;;;6.60;1.67;;;26.50;68.70;;;;;;5128297;27;20406;-86
2021/12/31 09:09:30;;;;;;;5.57;2.50;;;26.20;69.40;;;;;;5129386;27;20440;-87
2021/12/31 09:11:57;;;;;;;9.18;3.97;;;25.90;70.30;;;;;;5129444;27;20460;-92
2021/12/31 09:14:25;;;;;;;8.27;4.63;;;25.70;72.20;;;;;;5131021;28;20518;-86
2021/12/31 09:16:52;;;;;;;32.08;22.40;;;25.50;73.00;;;;;;5129252;28;20392;-84
2021/12/31 09:19:19;;;;;;;71.35;49.42;;;25.50;74.40;;;;;;5128830;28;20835;-88
2021/12/31 09:21:46;;;;;;;45.97;33.53;;;25.30;75.60;;;;;;5129121;28;20848;-85
2021/12/31 09:24:13;;;;;;;29.58;19.27;;;25.20;77.40;;;;;;5130047;28;20397;-84
2021/12/31 09:26:40;;;;;;;24.63;18.40;;;25.20;78.90;;;;;;5129820;28;20372;-83
2021/12/31 09:29:07;;;;;;;11.77;6.27;;;25.10;80.00;;;;;;5128922;28;20377;-89
2021/12/31 09:31:34;;;;;;;11.43;6.00;;;24.90;81.90;;;;;;5129123;28;20840;-81
2021/12/31 09:34:01;;;;;;;22.75;13.10;;;24.80;84.10;;;;;;5129256;28;20374;-85
2021/12/31 09:36:30;;;;;;;16.20;11.05;;;24.80;86.50;;;;;;5129133;28;20468;-83
2021/12/31 09:38:57;;;;;;;11.55;6.72;;;24.70;88.60;;;;;;5129083;28;20860;-81
2021/12/31 09:41:24;;;;;;;6.88;3.30;;;24.50;90.40;;;;;;5128833;28;20760;-84
2021/12/31 09:43:51;;;;;;;6.03;2.33;;;24.40;91.40;;;;;;5129080;28;20407;-86
2021/12/31 09:46:22;;;;;;;7.35;2.40;;;24.30;92.50;;;;;;5129060;28;20789;-86
2021/12/31 09:48:50;;;;;;;7.30;1.73;;;24.30;93.40;;;;;;5128888;28;20376;-86
2021/12/31 09:51:18;;;;;;;5.65;1.70;;;24.20;94.10;;;;;;5129078;28;20365;-82
2021/12/31 09:53:46;;;;;;;5.47;1.50;;;24.10;94.90;;;;;;5128956;28;20369;-85
2021/12/31 09:56:16;;;;;;;7.75;1.75;;;24.00;95.70;;;;;;5129090;28;20380;-85
2021/12/31 09:58:43;;;;;;;7.65;1.80;;;24.00;96.20;;;;;;5129335;28;20365;-85
2021/12/31 10:01:10;;;;;;;5.53;1.70;;;23.90;96.90;;;;;;5129112;28;20860;-85
2021/12/31 10:03:38;;;;;;;5.93;1.55;;;23.90;97.20;;;;;;5111200;28;20873;-85
2021/12/31 10:06:13;;;;;;;7.88;1.70;;;23.80;97.80;;;;;;5130017;28;20386;-82
2021/12/31 10:08:44;;;;;;;5.10;1.53;;;23.80;98.10;;;;;;5131382;28;20358;-89
2021/12/31 10:11:25;;;;;;;7.45;1.70;;;23.80;98.50;;;;;;5131371;28;20365;-86
2021/12/31 10:13:57;;;;;;;7.13;1.70;;;23.80;98.50;;;;;;5131251;28;20818;-88
2021/12/31 10:16:26;;;;;;;6.50;1.73;;;23.70;98.80;;;;;;5113576;28;20750;-82
2021/12/31 10:19:21;;;;;;;7.43;1.83;;;23.70;99.10;;;;;;5134311;27;20392;-85
2021/12/31 10:21:54;;;;;;;7.35;2.20;;;23.60;99.30;;;;;;5132771;27;20369;-85
2021/12/31 10:24:34;;;;;;;9.65;2.38;;;23.60;99.70;;;;;;5133423;27;20389;-89
2021/12/31 10:27:19;;;;;;;7.90;2.25;;;23.40;99.90;;;;;;5133225;27;20442;-89
2021/12/31 10:29:56;;;;;;;8.68;1.90;;;23.40;99.90;;;;;;5132645;27;20406;-87
2021/12/31 10:32:28;;;;;;;7.45;1.85;;;23.30;99.90;;;;;;5132505;27;20396;-87
2021/12/31 10:35:10;;;;;;;7.55;2.10;;;23.40;99.90;;;;;;5133486;27;20366;-88
2021/12/31 10:37:47;;;;;;;6.15;2.38;;;23.30;99.90;;;;;;5133319;27;20805;-88
2021/12/31 10:40:30;;;;;;;7.63;2.42;;;23.30;99.90;;;;;;5132302;27;20434;-87
2021/12/31 10:43:10;;;;;;;8.25;2.50;;;23.20;99.90;;;;;;5132269;27;20386;-87
2021/12/31 10:45:39;;;;;;;10.32;2.60;;;23.20;99.90;;;;;;5132367;27;20441;-86
2021/12/31 10:48:11;;;;;;;7.60;3.20;;;23.20;99.90;;;;;;5132297;27;20365;-84
2021/12/31 10:50:50;;;;;;;10.38;3.22;;;23.10;99.90;;;;;;5132286;27;20361;-89
2021/12/31 10:53:33;;;;;;;6.80;2.33;;;23.10;99.90;;;;;;5132222;27;20361;-87
2021/12/31 10:56:14;;;;;;;6.55;2.63;;;23.00;99.90;;;;;;5131980;27;20857;-87
2021/12/31 10:58:57;;;;;;;10.73;3.05;;;23.00;99.90;;;;;;5131909;27;20372;-83
2021/12/31 11:01:24;;;;;;;9.18;3.20;;;23.00;99.90;;;;;;5132247;27;20349;-84
2021/12/31 11:03:52;;;;;;;8.67;2.90;;;22.90;99.90;;;;;;5131487;27;20533;-85
2021/12/31 11:06:22;;;;;;;7.60;2.53;;;22.80;99.90;;;;;;5131829;27;20396;-85
2021/12/31 11:08:51;;;;;;;11.23;3.00;;;22.70;99.90;;;;;;5132001;27;20474;-82
2021/12/31 11:11:21;;;;;;;7.82;2.50;;;22.70;99.90;;;;;;5131997;27;20888;-89
2021/12/31 11:13:50;;;;;;;6.95;2.53;;;22.70;99.90;;;;;;5132015;27;20392;-87
2021/12/31 11:16:17;;;;;;;7.57;2.47;;;22.60;99.90;;;;;;5131566;27;20401;-92
2021/12/31 11:18:45;;;;;;;9.48;2.47;;;22.60;99.90;;;;;;5131341;27;20396;-88
2021/12/31 11:21:13;;;;;;;8.38;2.20;;;22.50;99.90;;;;;;5131294;27;20376;-88
2021/12/31 11:23:42;;;;;;;9.23;2.25;;;22.50;99.90;;;;;;5131210;27;20393;-87
2021/12/31 11:26:13;;;;;;;12.37;2.50;;;22.50;99.90;;;;;;5131272;27;20434;-87
2021/12/31 11:28:43;;;;;;;11.32;2.30;;;22.40;99.90;;;;;;5131236;27;20361;-88
2021/12/31 11:31:19;;;;;;;11.10;2.50;;;22.40;99.90;;;;;;5130153;27;20368;-89
2021/12/31 11:34:10;;;;;;;10.50;2.60;;;22.30;99.90;;;;;;5131060;27;20395;-89
2021/12/31 11:36:41;;;;;;;9.23;2.20;;;22.30;99.90;;;;;;5130727;27;20957;-90
2021/12/31 11:39:21;;;;;;;5.30;1.90;;;22.20;99.90;;;;;;5130955;27;20397;-89
2021/12/31 11:41:49;;;;;;;8.27;1.85;;;22.20;99.90;;;;;;5130807;27;20473;-89
2021/12/31 11:44:17;;;;;;;6.55;1.83;;;22.10;99.90;;;;;;5130690;27;20748;-88
2021/12/31 11:46:45;;;;;;;8.38;1.90;;;22.10;99.90;;;;;;5130929;27;20414;-88
2021/12/31 11:49:26;;;;;;;7.40;2.50;;;22.00;99.90;;;;;;5131290;27;20365;-89
2021/12/31 11:52:06;;;;;;;21.85;13.20;;;22.00;99.90;;;;;;5131179;27;20429;-86
2021/12/31 11:54:34;;;;;;;74.15;58.00;;;22.00;99.90;;;;;;5131165;27;20361;-89
2021/12/31 11:57:03;;;;;;;86.80;70.13;;;22.00;99.90;;;;;;5130473;27;20390;-87
2021/12/31 11:59:32;;;;;;;87.00;66.53;;;22.00;99.90;;;;;;5130645;27;20361;-87
2021/12/31 12:02:15;;;;;;;51.70;40.30;;;22.00;99.90;;;;;;5130375;27;20522;-88
2021/12/31 12:05:08;;;;;;;33.28;24.33;;;21.90;99.90;;;;;;5112939;27;20396;-82
2021/12/31 12:07:46;;;;;;;18.75;12.20;;;21.90;99.90;;;;;;5130407;27;20740;-84
2021/12/31 12:10:15;;;;;;;19.52;9.88;;;21.80;99.90;;;;;;5130427;27;20365;-82
2021/12/31 12:12:49;;;;;;;20.23;9.98;;;21.80;99.90;;;;;;5131019;27;20697;-83
2021/12/31 12:15:16;;;;;;;31.88;26.02;;;21.80;99.90;;;;;;5130002;27;20369;-84
2021/12/31 12:17:44;;;;;;;31.60;25.50;;;21.80;99.90;;;;;;5129973;27;20367;-86
2021/12/31 12:20:18;;;;;;;44.85;34.58;;;21.80;99.90;;;;;;5129954;27;20853;-84
2021/12/31 12:22:56;;;;;;;71.30;58.28;;;21.70;99.90;;;;;;5129988;27;20357;-84
2021/12/31 12:25:32;;;;;;;77.50;67.40;;;21.70;99.90;;;;;;5129800;27;20396;-83
2021/12/31 12:28:07;;;;;;;69.95;60.67;;;21.60;99.90;;;;;;5130471;27;20368;-85
2021/12/31 12:30:37;;;;;;;74.50;62.78;;;21.60;99.90;;;;;;5129829;27;20455;-87
2021/12/31 12:33:22;;;;;;;54.55;45.30;;;21.50;99.90;;;;;;5129638;27;20380;-87
2021/12/31 12:35:52;;;;;;;35.35;28.42;;;21.40;99.90;;;;;;5111280;27;20754;-84
2021/12/31 12:38:30;;;;;;;27.70;20.98;;;21.40;99.90;;;;;;5129934;27;20353;-88
2021/12/31 12:40:59;;;;;;;22.65;15.05;;;21.40;99.90;;;;;;5129632;27;20408;-88
2021/12/31 12:43:30;;;;;;;16.05;9.90;;;21.40;99.90;;;;;;5129786;27;20369;-89
2021/12/31 12:46:11;;;;;;;12.85;7.60;;;21.40;99.90;;;;;;5129851;27;20381;-85
2021/12/31 12:48:42;;;;;;;11.20;5.45;;;21.30;99.90;;;;;;5129713;27;20378;-88
2021/12/31 12:51:12;;;;;;;9.82;5.03;;;21.30;99.90;;;;;;5129769;27;20447;-85
2021/12/31 12:53:45;;;;;;;12.47;4.50;;;21.20;99.90;;;;;;5130314;27;20373;-84
2021/12/31 12:56:16;;;;;;;8.98;3.80;;;21.20;99.90;;;;;;5129972;27;20372;-82
2021/12/31 12:58:56;;;;;;;8.30;3.70;;;21.20;99.90;;;;;;5129636;27;20365;-86